sensor_id;sensor_type;location;lat;lon;timestamp;pressure;altitude;pressure_sealevel;temperature;humidity
7962;BME280;4026;43.652;24.906;2024-01-11T00:02:07;100419.19;;;-8.49;100.00
7962;BME280;4026;43.652;24.906;2024-01-11T00:04:36;100416.75;;;-8.47;100.00
7962;BME280;4026;43.652;24.906;2024-01-11T00:07:03;100412.69;;;-8.45;100.00
7962;BME280;4026;43.652;24.906;2024-01-11T00:09:29;100418.03;;;-8.28;100.00
7962;BME280;4026;43.652;24.906;2024-01-11T00:11:56;100418.66;;;-8.35;100.00
7962;BME280;4026;43.652;24.906;2024-01-11T00:14:23;100420.88;;;-8.48;100.00
7962;BME280;4026;43.652;24.906;2024-01-11T00:16:50;100411.59;;;-8.55;100.00
7962;BME280;4026;43.652;24.906;2024-01-11T00:19:16;100412.38;;;-8.56;100.00
7962;BME280;4026;43.652;24.906;2024-01-11T00:21:44;100412.31;;;-8.59;100.00
7962;BME280;4026;43.652;24.906;2024-01-11T00:24:11;100414.16;;;-8.52;100.00
7962;BME280;4026;43.652;24.906;2024-01-11T00:26:37;100411.63;;;-8.53;100.00
7962;BME280;4026;43.652;24.906;2024-01-11T00:29:04;100404.16;;;-8.55;100.00
7962;BME280;4026;43.652;24.906;2024-01-11T00:31:31;100400.88;;;-8.54;100.00
7962;BME280;4026;43.652;24.906;2024-01-11T00:33:58;100399.00;;;-8.62;100.00
7962;BME280;4026;43.652;24.906;2024-01-11T00:36:25;100393.91;;;-8.67;100.00
7962;BME280;4026;43.652;24.906;2024-01-11T00:38:53;100387.13;;;-8.74;100.00
7962;BME280;4026;43.652;24.906;2024-01-11T00:41:20;100388.72;;;-8.76;100.00
7962;BME280;4026;43.652;24.906;2024-01-11T00:43:47;100383.75;;;-8.76;100.00
7962;BME280;4026;43.652;24.906;2024-01-11T00:46:13;100387.84;;;-8.78;100.00
7962;BME280;4026;43.652;24.906;2024-01-11T00:48:40;100377.66;;;-8.88;100.00
7962;BME280;4026;43.652;24.906;2024-01-11T00:51:07;100376.97;;;-8.83;100.00
7962;BME280;4026;43.652;24.906;2024-01-11T00:53:34;100376.88;;;-8.86;100.00
7962;BME280;4026;43.652;24.906;2024-01-11T00:56:02;100374.31;;;-8.90;100.00
7962;BME280;4026;43.652;24.906;2024-01-11T00:58:29;100377.56;;;-8.92;100.00
7962;BME280;4026;43.652;24.906;2024-01-11T01:00:56;100375.19;;;-8.88;100.00
7962;BME280;4026;43.652;24.906;2024-01-11T01:03:23;100366.16;;;-8.87;100.00
7962;BME280;4026;43.652;24.906;2024-01-11T01:05:49;100368.41;;;-8.95;100.00
7962;BME280;4026;43.652;24.906;2024-01-11T01:08:16;100355.88;;;-8.99;100.00
7962;BME280;4026;43.652;24.906;2024-01-11T01:10:43;100364.16;;;-8.99;100.00
7962;BME280;4026;43.652;24.906;2024-01-11T01:13:11;100351.09;;;-8.93;100.00
7962;BME280;4026;43.652;24.906;2024-01-11T01:15:38;100347.00;;;-8.93;100.00
7962;BME280;4026;43.652;24.906;2024-01-11T01:18:05;100343.53;;;-8.98;100.00
7962;BME280;4026;43.652;24.906;2024-01-11T01:20:32;100343.53;;;-8.98;100.00
7962;BME280;4026;43.652;24.906;2024-01-11T01:22:58;100347.00;;;-8.93;100.00
7962;BME280;4026;43.652;24.906;2024-01-11T01:25:25;100345.06;;;-9.03;100.00
7962;BME280;4026;43.652;24.906;2024-01-11T01:27:52;100338.66;;;-8.95;100.00
7962;BME280;4026;43.652;24.906;2024-01-11T01:30:21;100338.97;;;-8.82;100.00
7962;BME280;4026;43.652;24.906;2024-01-11T01:32:48;100331.00;;;-8.72;100.00
7962;BME280;4026;43.652;24.906;2024-01-11T01:35:16;100322.16;;;-8.62;100.00
7962;BME280;4026;43.652;24.906;2024-01-11T01:37:42;100323.13;;;-8.56;100.00
7962;BME280;4026;43.652;24.906;2024-01-11T01:40:10;100322.28;;;-8.58;100.00
7962;BME280;4026;43.652;24.906;2024-01-11T01:42:41;100312.44;;;-8.55;100.00
7962;BME280;4026;43.652;24.906;2024-01-11T01:45:08;100313.34;;;-8.51;100.00
7962;BME280;4026;43.652;24.906;2024-01-11T01:47:37;100321.75;;;-8.45;100.00
7962;BME280;4026;43.652;24.906;2024-01-11T01:50:07;100317.56;;;-8.47;100.00
7962;BME280;4026;43.652;24.906;2024-01-11T01:52:35;100314.31;;;-8.46;100.00
7962;BME280;4026;43.652;24.906;2024-01-11T01:55:04;100318.16;;;-8.56;100.00
7962;BME280;4026;43.652;24.906;2024-01-11T01:57:32;100317.19;;;-8.62;100.00
7962;BME280;4026;43.652;24.906;2024-01-11T02:00:01;100311.19;;;-8.72;100.00
7962;BME280;4026;43.652;24.906;2024-01-11T02:02:30;100305.44;;;-8.70;100.00
7962;BME280;4026;43.652;24.906;2024-01-11T02:04:58;100303.97;;;-8.63;100.00
7962;BME280;4026;43.652;24.906;2024-01-11T02:07:25;100301.34;;;-8.69;100.00
7962;BME280;4026;43.652;24.906;2024-01-11T02:09:52;100303.00;;;-8.68;100.00
7962;BME280;4026;43.652;24.906;2024-01-11T02:12:19;100302.84;;;-8.74;100.00
7962;BME280;4026;43.652;24.906;2024-01-11T02:14:46;100292.25;;;-8.69;100.00
7962;BME280;4026;43.652;24.906;2024-01-11T02:17:13;100295.06;;;-8.55;100.00
7962;BME280;4026;43.652;24.906;2024-01-11T02:19:40;100293.22;;;-8.62;100.00
7962;BME280;4026;43.652;24.906;2024-01-11T02:22:14;100282.34;;;-8.67;100.00
7962;BME280;4026;43.652;24.906;2024-01-11T02:24:44;100281.56;;;-8.66;100.00
7962;BME280;4026;43.652;24.906;2024-01-11T02:27:10;100275.84;;;-8.63;100.00
7962;BME280;4026;43.652;24.906;2024-01-11T02:29:37;100271.66;;;-8.66;100.00
7962;BME280;4026;43.652;24.906;2024-01-11T02:32:04;100276.63;;;-8.66;100.00
7962;BME280;4026;43.652;24.906;2024-01-11T02:34:32;100276.72;;;-8.61;100.00
7962;BME280;4026;43.652;24.906;2024-01-11T02:36:59;100278.50;;;-8.56;100.00
7962;BME280;4026;43.652;24.906;2024-01-11T02:39:26;100276.09;;;-8.53;100.00
7962;BME280;4026;43.652;24.906;2024-01-11T02:41:56;100278.72;;;-8.47;100.00
7962;BME280;4026;43.652;24.906;2024-01-11T02:44:23;100276.53;;;-8.34;100.00
7962;BME280;4026;43.652;24.906;2024-01-11T02:46:50;100269.22;;;-8.28;100.00
7962;BME280;4026;43.652;24.906;2024-01-11T02:49:17;100267.59;;;-8.26;100.00
7962;BME280;4026;43.652;24.906;2024-01-11T02:51:44;100265.16;;;-8.25;100.00
7962;BME280;4026;43.652;24.906;2024-01-11T02:54:11;100262.50;;;-8.32;100.00
7962;BME280;4026;43.652;24.906;2024-01-11T02:56:37;100263.75;;;-8.51;100.00
7962;BME280;4026;43.652;24.906;2024-01-11T02:59:06;100267.00;;;-8.54;100.00
7962;BME280;4026;43.652;24.906;2024-01-11T03:01:32;100256.25;;;-8.54;100.00
7962;BME280;4026;43.652;24.906;2024-01-11T03:03:59;100265.53;;;-8.46;100.00
7962;BME280;4026;43.652;24.906;2024-01-11T03:06:26;100259.84;;;-8.41;100.00
7962;BME280;4026;43.652;24.906;2024-01-11T03:08:53;100260.56;;;-8.46;100.00
7962;BME280;4026;43.652;24.906;2024-01-11T03:11:20;100257.28;;;-8.45;100.00
7962;BME280;4026;43.652;24.906;2024-01-11T03:13:47;100246.53;;;-8.45;100.00
7962;BME280;4026;43.652;24.906;2024-01-11T03:16:15;100251.34;;;-8.51;100.00
7962;BME280;4026;43.652;24.906;2024-01-11T03:18:42;100249.41;;;-8.63;100.00
7962;BME280;4026;43.652;24.906;2024-01-11T03:21:08;100240.66;;;-8.83;100.00
7962;BME280;4026;43.652;24.906;2024-01-11T03:23:35;100236.41;;;-8.88;100.00
7962;BME280;4026;43.652;24.906;2024-01-11T03:26:02;100236.34;;;-8.91;100.00
7962;BME280;4026;43.652;24.906;2024-01-11T03:28:29;100237.78;;;-8.99;100.00
7962;BME280;4026;43.652;24.906;2024-01-11T03:30:57;100228.59;;;-9.04;100.00
7962;BME280;4026;43.652;24.906;2024-01-11T03:33:25;100222.56;;;-9.14;100.00
7962;BME280;4026;43.652;24.906;2024-01-11T03:35:51;100229.00;;;-9.19;100.00
7962;BME280;4026;43.652;24.906;2024-01-11T03:38:18;100221.59;;;-9.19;100.00
7962;BME280;4026;43.652;24.906;2024-01-11T03:40:45;100219.75;;;-9.26;100.00
7962;BME280;4026;43.652;24.906;2024-01-11T03:43:12;100214.69;;;-9.31;100.00
7962;BME280;4026;43.652;24.906;2024-01-11T03:45:39;100214.66;;;-9.32;100.00
7962;BME280;4026;43.652;24.906;2024-01-11T03:48:06;100214.16;;;-9.19;100.00
7962;BME280;4026;43.652;24.906;2024-01-11T03:50:34;100211.88;;;-9.13;100.00
7962;BME280;4026;43.652;24.906;2024-01-11T03:53:01;100209.59;;;-9.04;100.00
7962;BME280;4026;43.652;24.906;2024-01-11T03:55:28;100208.94;;;-8.98;100.00
7962;BME280;4026;43.652;24.906;2024-01-11T03:57:55;100210.72;;;-8.93;100.00
7962;BME280;4026;43.652;24.906;2024-01-11T04:00:22;100202.31;;;-8.98;100.00
7962;BME280;4026;43.652;24.906;2024-01-11T04:02:48;100204.13;;;-8.92;100.00
7962;BME280;4026;43.652;24.906;2024-01-11T04:05:15;100198.47;;;-8.86;100.00
7962;BME280;4026;43.652;24.906;2024-01-11T04:07:43;100203.34;;;-8.90;100.00
7962;BME280;4026;43.652;24.906;2024-01-11T04:10:10;100200.13;;;-8.85;100.00
7962;BME280;4026;43.652;24.906;2024-01-11T04:12:37;100198.63;;;-8.80;100.00
7962;BME280;4026;43.652;24.906;2024-01-11T04:15:05;100203.56;;;-8.80;100.00
7962;BME280;4026;43.652;24.906;2024-01-11T04:17:32;100189.53;;;-8.80;100.00
7962;BME280;4026;43.652;24.906;2024-01-11T04:19:58;100191.88;;;-8.84;100.00
7962;BME280;4026;43.652;24.906;2024-01-11T04:22:25;100186.56;;;-9.00;100.00
7962;BME280;4026;43.652;24.906;2024-01-11T04:24:55;100186.28;;;-9.12;100.00
7962;BME280;4026;43.652;24.906;2024-01-11T04:27:22;100186.34;;;-9.09;100.00
7962;BME280;4026;43.652;24.906;2024-01-11T04:29:49;100183.00;;;-9.11;100.00
7962;BME280;4026;43.652;24.906;2024-01-11T04:32:16;100173.00;;;-9.14;100.00
7962;BME280;4026;43.652;24.906;2024-01-11T04:34:42;100169.78;;;-9.12;100.00
7962;BME280;4026;43.652;24.906;2024-01-11T04:37:09;100168.28;;;-9.05;100.00
7962;BME280;4026;43.652;24.906;2024-01-11T04:39:36;100163.19;;;-9.11;100.00
7962;BME280;4026;43.652;24.906;2024-01-11T04:42:05;100164.81;;;-9.13;100.00
7962;BME280;4026;43.652;24.906;2024-01-11T04:44:31;100163.72;;;-9.23;100.00
7962;BME280;4026;43.652;24.906;2024-01-11T04:46:58;100166.16;;;-9.24;100.00
7962;BME280;4026;43.652;24.906;2024-01-11T04:49:25;100154.25;;;-9.39;100.00
7962;BME280;4026;43.652;24.906;2024-01-11T04:51:52;100160.06;;;-9.37;100.00
7962;BME280;4026;43.652;24.906;2024-01-11T04:54:19;100159.91;;;-9.43;100.00
7962;BME280;4026;43.652;24.906;2024-01-11T04:56:45;100159.00;;;-9.47;100.00
7962;BME280;4026;43.652;24.906;2024-01-11T04:59:13;100148.84;;;-9.56;100.00
7962;BME280;4026;43.652;24.906;2024-01-11T05:01:40;100151.19;;;-9.61;100.00
7962;BME280;4026;43.652;24.906;2024-01-11T05:04:08;100143.69;;;-9.65;100.00
7962;BME280;4026;43.652;24.906;2024-01-11T05:06:35;100140.53;;;-9.58;100.00
7962;BME280;4026;43.652;24.906;2024-01-11T05:09:02;100137.25;;;-9.57;100.00
7962;BME280;4026;43.652;24.906;2024-01-11T05:11:30;100133.78;;;-9.65;100.00
7962;BME280;4026;43.652;24.906;2024-01-11T05:13:57;100132.00;;;-9.69;100.00
7962;BME280;4026;43.652;24.906;2024-01-11T05:16:26;100129.75;;;-9.60;100.00
7962;BME280;4026;43.652;24.906;2024-01-11T05:18:53;100131.56;;;-9.54;100.00
7962;BME280;4026;43.652;24.906;2024-01-11T05:21:21;100138.38;;;-9.46;100.00
7962;BME280;4026;43.652;24.906;2024-01-11T05:23:48;100130.88;;;-9.49;100.00
7962;BME280;4026;43.652;24.906;2024-01-11T05:26:16;100129.28;;;-9.47;100.00
7962;BME280;4026;43.652;24.906;2024-01-11T05:28:43;100127.00;;;-9.39;100.00
7962;BME280;4026;43.652;24.906;2024-01-11T05:31:11;100126.97;;;-9.41;100.00
7962;BME280;4026;43.652;24.906;2024-01-11T05:33:39;100119.47;;;-9.44;100.00
7962;BME280;4026;43.652;24.906;2024-01-11T05:36:07;100106.19;;;-9.46;100.00
7962;BME280;4026;43.652;24.906;2024-01-11T05:38:34;100109.63;;;-9.41;100.00
7962;BME280;4026;43.652;24.906;2024-01-11T05:41:01;100113.06;;;-9.36;100.00
7962;BME280;4026;43.652;24.906;2024-01-11T05:43:28;100114.66;;;-9.38;100.00
7962;BME280;4026;43.652;24.906;2024-01-11T05:45:55;100116.09;;;-9.46;100.00
7962;BME280;4026;43.652;24.906;2024-01-11T05:48:22;100114.44;;;-9.47;100.00
7962;BME280;4026;43.652;24.906;2024-01-11T05:50:51;100113.59;;;-9.47;100.00
7962;BME280;4026;43.652;24.906;2024-01-11T05:53:18;100107.91;;;-9.45;100.00
7962;BME280;4026;43.652;24.906;2024-01-11T05:55:46;100106.53;;;-9.33;100.00
7962;BME280;4026;43.652;24.906;2024-01-11T05:58:13;100103.25;;;-9.31;100.00
7962;BME280;4026;43.652;24.906;2024-01-11T06:00:39;100099.88;;;-9.35;100.00
7962;BME280;4026;43.652;24.906;2024-01-11T06:03:07;100105.44;;;-9.43;100.00
7962;BME280;4026;43.652;24.906;2024-01-11T06:05:34;100089.81;;;-9.41;100.00
7962;BME280;4026;43.652;24.906;2024-01-11T06:08:02;100097.19;;;-9.44;100.00
7962;BME280;4026;43.652;24.906;2024-01-11T06:10:29;100097.31;;;-9.38;100.00
7962;BME280;4026;43.652;24.906;2024-01-11T06:12:57;100094.84;;;-9.38;100.00
7962;BME280;4026;43.652;24.906;2024-01-11T06:15:23;100095.22;;;-9.22;100.00
7962;BME280;4026;43.652;24.906;2024-01-11T06:17:50;100098.69;;;-9.16;100.00
7962;BME280;4026;43.652;24.906;2024-01-11T06:20:17;100098.78;;;-9.11;100.00
7962;BME280;4026;43.652;24.906;2024-01-11T06:22:44;100094.81;;;-9.04;100.00
7962;BME280;4026;43.652;24.906;2024-01-11T06:25:12;100097.25;;;-9.06;100.00
7962;BME280;4026;43.652;24.906;2024-01-11T06:27:39;100086.00;;;-8.92;100.00
7962;BME280;4026;43.652;24.906;2024-01-11T06:30:07;100094.59;;;-8.77;100.00
7962;BME280;4026;43.652;24.906;2024-01-11T06:32:33;100090.72;;;-8.66;100.00
7962;BME280;4026;43.652;24.906;2024-01-11T06:35:00;100089.56;;;-8.80;100.00
7962;BME280;4026;43.652;24.906;2024-01-11T06:37:28;100086.97;;;-8.85;100.00
7962;BME280;4026;43.652;24.906;2024-01-11T06:39:55;100084.94;;;-8.65;100.00
7962;BME280;4026;43.652;24.906;2024-01-11T06:42:23;100089.25;;;-8.56;100.00
7962;BME280;4026;43.652;24.906;2024-01-11T06:44:50;100090.34;;;-8.44;100.00
7962;BME280;4026;43.652;24.906;2024-01-11T06:47:17;100093.00;;;-8.34;100.00
7962;BME280;4026;43.652;24.906;2024-01-11T06:49:45;100082.53;;;-8.18;100.00
7962;BME280;4026;43.652;24.906;2024-01-11T06:52:12;100081.09;;;-8.08;100.00
7962;BME280;4026;43.652;24.906;2024-01-11T06:54:39;100073.78;;;-8.01;100.00
7962;BME280;4026;43.652;24.906;2024-01-11T06:57:06;100077.06;;;-8.02;100.00
7962;BME280;4026;43.652;24.906;2024-01-11T06:59:34;100069.84;;;-7.89;100.00
7962;BME280;4026;43.652;24.906;2024-01-11T07:02:01;100075.81;;;-7.80;100.00
7962;BME280;4026;43.652;24.906;2024-01-11T07:04:28;100072.00;;;-7.61;100.00
7962;BME280;4026;43.652;24.906;2024-01-11T07:06:55;100068.34;;;-7.31;100.00
7962;BME280;4026;43.652;24.906;2024-01-11T07:09:21;100071.34;;;-6.97;100.00
7962;BME280;4026;43.652;24.906;2024-01-11T07:11:48;100070.25;;;-6.55;100.00
7962;BME280;4026;43.652;24.906;2024-01-11T07:14:15;100065.63;;;-6.28;100.00
7962;BME280;4026;43.652;24.906;2024-01-11T07:16:43;100072.72;;;-5.84;100.00
7962;BME280;4026;43.652;24.906;2024-01-11T07:19:10;100079.72;;;-5.43;100.00
7962;BME280;4026;43.652;24.906;2024-01-11T07:21:37;100080.06;;;-4.97;100.00
7962;BME280;4026;43.652;24.906;2024-01-11T07:24:04;100082.78;;;-4.59;100.00
7962;BME280;4026;43.652;24.906;2024-01-11T07:26:31;100082.97;;;-4.20;100.00
7962;BME280;4026;43.652;24.906;2024-01-11T07:28:58;100088.88;;;-3.84;100.00
7962;BME280;4026;43.652;24.906;2024-01-11T07:31:25;100092.25;;;-3.64;100.00
7962;BME280;4026;43.652;24.906;2024-01-11T07:33:53;100093.13;;;-3.44;100.00
7962;BME280;4026;43.652;24.906;2024-01-11T07:36:20;100087.25;;;-3.70;100.00
7962;BME280;4026;43.652;24.906;2024-01-11T07:38:47;100093.97;;;-3.51;100.00
7962;BME280;4026;43.652;24.906;2024-01-11T07:41:14;100100.63;;;-3.41;100.00
7962;BME280;4026;43.652;24.906;2024-01-11T07:43:40;100100.66;;;-3.22;100.00
7962;BME280;4026;43.652;24.906;2024-01-11T07:46:08;100098.97;;;-3.05;100.00
7962;BME280;4026;43.652;24.906;2024-01-11T07:48:35;100087.28;;;-3.06;100.00
7962;BME280;4026;43.652;24.906;2024-01-11T07:51:04;100093.13;;;-3.02;100.00
7962;BME280;4026;43.652;24.906;2024-01-11T07:53:31;100083.94;;;-2.86;100.00
7962;BME280;4026;43.652;24.906;2024-01-11T07:55:58;100091.41;;;-2.74;100.00
7962;BME280;4026;43.652;24.906;2024-01-11T07:58:25;100098.91;;;-2.68;100.00
7962;BME280;4026;43.652;24.906;2024-01-11T08:00:51;100097.28;;;-2.90;100.00
7962;BME280;4026;43.652;24.906;2024-01-11T08:03:19;100089.81;;;-3.33;100.00
7962;BME280;4026;43.652;24.906;2024-01-11T08:05:46;100086.44;;;-3.20;100.00
7962;BME280;4026;43.652;24.906;2024-01-11T08:08:17;100088.13;;;-3.22;100.00
7962;BME280;4026;43.652;24.906;2024-01-11T08:10:43;100085.63;;;-3.16;100.00
7962;BME280;4026;43.652;24.906;2024-01-11T08:13:10;100094.78;;;-2.92;100.00
7962;BME280;4026;43.652;24.906;2024-01-11T08:15:38;100083.91;;;-2.69;100.00
7962;BME280;4026;43.652;24.906;2024-01-11T08:18:05;100078.88;;;-2.65;100.00
7962;BME280;4026;43.652;24.906;2024-01-11T08:20:32;100092.16;;;-2.44;100.00
7962;BME280;4026;43.652;24.906;2024-01-11T08:22:59;100084.50;;;-2.08;100.00
7962;BME280;4026;43.652;24.906;2024-01-11T08:25:27;100090.28;;;-1.90;99.89
7962;BME280;4026;43.652;24.906;2024-01-11T08:27:55;100073.47;;;-1.73;97.49
7962;BME280;4026;43.652;24.906;2024-01-11T08:30:21;100063.34;;;-1.61;97.59
7962;BME280;4026;43.652;24.906;2024-01-11T08:32:48;100064.66;;;-1.17;96.62
7962;BME280;4026;43.652;24.906;2024-01-11T08:35:15;100067.84;;;-0.93;92.98
7962;BME280;4026;43.652;24.906;2024-01-11T08:37:42;100055.84;;;-0.66;91.70
7962;BME280;4026;43.652;24.906;2024-01-11T08:40:09;100052.00;;;-0.26;90.18
7962;BME280;4026;43.652;24.906;2024-01-11T08:42:38;100052.84;;;-0.27;89.28
7962;BME280;4026;43.652;24.906;2024-01-11T08:45:07;100056.13;;;-0.20;87.54
7962;BME280;4026;43.652;24.906;2024-01-11T08:47:33;100057.53;;;0.01;85.46
7962;BME280;4026;43.652;24.906;2024-01-11T08:50:00;100054.59;;;0.29;83.60
7962;BME280;4026;43.652;24.906;2024-01-11T08:52:31;100053.94;;;0.72;82.30
7962;BME280;4026;43.652;24.906;2024-01-11T08:54:58;100048.47;;;0.99;80.23
7962;BME280;4026;43.652;24.906;2024-01-11T08:57:25;100043.38;;;1.02;76.64
7962;BME280;4026;43.652;24.906;2024-01-11T08:59:53;100042.84;;;0.83;77.16
7962;BME280;4026;43.652;24.906;2024-01-11T09:02:21;100038.19;;;0.05;78.25
7962;BME280;4026;43.652;24.906;2024-01-11T09:04:47;100036.81;;;-0.16;82.88
7962;BME280;4026;43.652;24.906;2024-01-11T09:07:14;100031.91;;;0.33;81.52
7962;BME280;4026;43.652;24.906;2024-01-11T09:09:42;100021.28;;;0.14;81.91
7962;BME280;4026;43.652;24.906;2024-01-11T09:12:09;100032.78;;;0.31;81.19
7962;BME280;4026;43.652;24.906;2024-01-11T09:14:36;100023.66;;;0.25;81.16
7962;BME280;4026;43.652;24.906;2024-01-11T09:17:06;100023.56;;;0.31;80.84
7962;BME280;4026;43.652;24.906;2024-01-11T09:19:33;100019.13;;;-0.09;82.93
7962;BME280;4026;43.652;24.906;2024-01-11T09:22:00;100024.47;;;0.26;81.99
7962;BME280;4026;43.652;24.906;2024-01-11T09:24:28;100018.28;;;0.47;79.94
7962;BME280;4026;43.652;24.906;2024-01-11T09:26:54;100015.31;;;0.76;79.11
7962;BME280;4026;43.652;24.906;2024-01-11T09:29:21;100006.13;;;0.73;78.87
7962;BME280;4026;43.652;24.906;2024-01-11T09:31:48;100006.44;;;0.53;79.98
7962;BME280;4026;43.652;24.906;2024-01-11T09:34:16;99996.22;;;1.09;78.78
7962;BME280;4026;43.652;24.906;2024-01-11T09:36:43;99986.41;;;1.39;75.83
7962;BME280;4026;43.652;24.906;2024-01-11T09:39:10;99982.88;;;1.86;74.51
7962;BME280;4026;43.652;24.906;2024-01-11T09:41:42;99984.13;;;2.06;69.20
7962;BME280;4026;43.652;24.906;2024-01-11T09:44:10;99981.75;;;2.35;68.79
7962;BME280;4026;43.652;24.906;2024-01-11T09:46:36;99969.97;;;2.36;67.92
7962;BME280;4026;43.652;24.906;2024-01-11T09:49:04;99962.13;;;2.79;66.75
7962;BME280;4026;43.652;24.906;2024-01-11T09:51:34;99957.91;;;2.80;66.16
7962;BME280;4026;43.652;24.906;2024-01-11T09:54:03;99955.88;;;3.53;64.09
7962;BME280;4026;43.652;24.906;2024-01-11T09:56:29;99952.66;;;3.76;61.73
7962;BME280;4026;43.652;24.906;2024-01-11T09:58:57;99941.00;;;4.25;60.71
7962;BME280;4026;43.652;24.906;2024-01-11T10:01:24;99931.69;;;3.73;58.53
7962;BME280;4026;43.652;24.906;2024-01-11T10:03:52;99925.75;;;3.74;60.23
7962;BME280;4026;43.652;24.906;2024-01-11T10:06:21;99928.81;;;4.10;58.42
7962;BME280;4026;43.652;24.906;2024-01-11T10:08:49;99921.22;;;4.10;58.90
7962;BME280;4026;43.652;24.906;2024-01-11T10:11:16;99926.97;;;4.15;58.87
7962;BME280;4026;43.652;24.906;2024-01-11T10:13:43;99911.75;;;4.42;57.21
7962;BME280;4026;43.652;24.906;2024-01-11T10:16:12;99914.00;;;4.24;57.96
7962;BME280;4026;43.652;24.906;2024-01-11T10:18:39;99907.81;;;4.58;57.26
7962;BME280;4026;43.652;24.906;2024-01-11T10:21:05;99904.09;;;4.68;56.80
7962;BME280;4026;43.652;24.906;2024-01-11T10:23:33;99888.78;;;5.18;55.26
7962;BME280;4026;43.652;24.906;2024-01-11T10:26:01;99895.22;;;5.49;54.76
7962;BME280;4026;43.652;24.906;2024-01-11T10:28:28;99880.97;;;4.78;55.09
7962;BME280;4026;43.652;24.906;2024-01-11T10:30:56;99885.69;;;5.10;54.45
7962;BME280;4026;43.652;24.906;2024-01-11T10:33:23;99886.25;;;5.62;54.98
7962;BME280;4026;43.652;24.906;2024-01-11T10:35:50;99881.34;;;5.58;52.94
7962;BME280;4026;43.652;24.906;2024-01-11T10:38:17;99872.34;;;5.05;53.92
7962;BME280;4026;43.652;24.906;2024-01-11T10:40:45;99873.75;;;5.58;53.79
7962;BME280;4026;43.652;24.906;2024-01-11T10:43:19;99871.56;;;5.71;53.44
7962;BME280;4026;43.652;24.906;2024-01-11T10:45:48;99871.19;;;5.80;53.04
7962;BME280;4026;43.652;24.906;2024-01-11T10:48:21;99861.03;;;5.80;53.11
7962;BME280;4026;43.652;24.906;2024-01-11T10:50:54;99861.88;;;5.58;52.40
7962;BME280;4026;43.652;24.906;2024-01-11T10:53:25;99851.63;;;5.17;53.89
7962;BME280;4026;43.652;24.906;2024-01-11T10:55:55;99853.47;;;5.36;53.09
7962;BME280;4026;43.652;24.906;2024-01-11T10:58:26;99851.25;;;5.71;52.24
7962;BME280;4026;43.652;24.906;2024-01-11T11:00:54;99851.38;;;5.67;52.90
7962;BME280;4026;43.652;24.906;2024-01-11T11:03:23;99835.59;;;5.39;52.58
7962;BME280;4026;43.652;24.906;2024-01-11T11:05:53;99834.28;;;5.07;53.78
7962;BME280;4026;43.652;24.906;2024-01-11T11:08:22;99825.28;;;4.29;54.05
7962;BME280;4026;43.652;24.906;2024-01-11T11:10:51;99821.41;;;3.94;53.46
7962;BME280;4026;43.652;24.906;2024-01-11T11:13:21;99811.75;;;4.05;53.81
7962;BME280;4026;43.652;24.906;2024-01-11T11:15:50;99805.44;;;3.92;53.83
7962;BME280;4026;43.652;24.906;2024-01-11T11:18:18;99805.84;;;3.79;53.25
7962;BME280;4026;43.652;24.906;2024-01-11T11:20:46;99801.41;;;3.61;53.97
7962;BME280;4026;43.652;24.906;2024-01-11T11:23:15;99792.03;;;3.63;53.55
7962;BME280;4026;43.652;24.906;2024-01-11T11:25:44;99779.22;;;3.16;53.84
7962;BME280;4026;43.652;24.906;2024-01-11T11:28:12;99784.88;;;2.68;56.91
7962;BME280;4026;43.652;24.906;2024-01-11T11:30:41;99772.31;;;2.93;55.62
7962;BME280;4026;43.652;24.906;2024-01-11T11:33:10;99772.72;;;3.09;54.54
7962;BME280;4026;43.652;24.906;2024-01-11T11:35:37;99760.00;;;3.38;54.98
7962;BME280;4026;43.652;24.906;2024-01-11T11:38:05;99763.75;;;3.25;53.03
7962;BME280;4026;43.652;24.906;2024-01-11T11:40:32;99757.56;;;2.81;54.13
7962;BME280;4026;43.652;24.906;2024-01-11T11:43:02;99754.81;;;2.59;53.75
7962;BME280;4026;43.652;24.906;2024-01-11T11:45:30;99745.50;;;2.01;55.92
7962;BME280;4026;43.652;24.906;2024-01-11T11:47:57;99739.66;;;1.67;57.46
7962;BME280;4026;43.652;24.906;2024-01-11T11:50:26;99736.63;;;1.18;59.24
7962;BME280;4026;43.652;24.906;2024-01-11T11:52:54;99733.16;;;1.24;59.70
7962;BME280;4026;43.652;24.906;2024-01-11T11:55:22;99729.50;;;1.70;60.23
7962;BME280;4026;43.652;24.906;2024-01-11T11:57:50;99719.59;;;1.64;59.47
7962;BME280;4026;43.652;24.906;2024-01-11T12:00:18;99717.44;;;2.12;59.41
7962;BME280;4026;43.652;24.906;2024-01-11T12:02:46;99708.44;;;2.63;58.59
7962;BME280;4026;43.652;24.906;2024-01-11T12:05:13;99704.75;;;2.73;57.38
7962;BME280;4026;43.652;24.906;2024-01-11T12:07:41;99698.19;;;2.10;59.65
7962;BME280;4026;43.652;24.906;2024-01-11T12:10:08;99693.38;;;2.00;59.86
7962;BME280;4026;43.652;24.906;2024-01-11T12:12:37;99694.97;;;2.04;61.35
7962;BME280;4026;43.652;24.906;2024-01-11T12:15:05;99702.78;;;2.25;60.16
7962;BME280;4026;43.652;24.906;2024-01-11T12:17:33;99692.25;;;2.40;60.70
7962;BME280;4026;43.652;24.906;2024-01-11T12:19:59;99691.88;;;1.62;61.42
7962;BME280;4026;43.652;24.906;2024-01-11T12:22:26;99681.91;;;1.90;62.99
7962;BME280;4026;43.652;24.906;2024-01-11T12:24:55;99678.00;;;2.10;61.37
7962;BME280;4026;43.652;24.906;2024-01-11T12:27:22;99676.03;;;1.58;63.04
7962;BME280;4026;43.652;24.906;2024-01-11T12:29:49;99670.94;;;1.60;64.53
7962;BME280;4026;43.652;24.906;2024-01-11T12:32:17;99659.84;;;1.66;63.82
7962;BME280;4026;43.652;24.906;2024-01-11T12:34:44;99657.81;;;1.47;63.90
7962;BME280;4026;43.652;24.906;2024-01-11T12:37:11;99649.31;;;1.83;64.73
7962;BME280;4026;43.652;24.906;2024-01-11T12:39:38;99643.28;;;1.88;64.23
7962;BME280;4026;43.652;24.906;2024-01-11T12:42:06;99641.22;;;2.02;65.52
7962;BME280;4026;43.652;24.906;2024-01-11T12:44:34;99644.06;;;2.20;63.74
7962;BME280;4026;43.652;24.906;2024-01-11T12:47:03;99650.00;;;2.19;61.92
7962;BME280;4026;43.652;24.906;2024-01-11T12:49:31;99642.78;;;2.07;62.00
7962;BME280;4026;43.652;24.906;2024-01-11T12:51:58;99634.19;;;1.83;62.03
7962;BME280;4026;43.652;24.906;2024-01-11T12:54:25;99630.81;;;1.84;63.83
7962;BME280;4026;43.652;24.906;2024-01-11T12:56:52;99631.81;;;1.78;63.12
7962;BME280;4026;43.652;24.906;2024-01-11T12:59:25;99621.81;;;1.75;62.79
7962;BME280;4026;43.652;24.906;2024-01-11T13:01:52;99615.19;;;1.40;65.52